Time;durP1;ratioP1;P1;durP2;ratioP2;P2;SDS_P1;SDS_P2;PMS_P1;PMS_P2;Temp;Humidity;BMP_temperature;BMP_pressure;BME280_temperature;BME280_humidity;BME280_pressure;Samples;Min_cycle;Max_cycle;Signal;HPM_P1;HPM_P2
2021/08/28 00:00:45;;;;;;;11.50;8.40;;;;;;;13.56;83.23;100153.41;95315;1180;98584;-77
2021/08/28 00:02:53;;;;;;;11.20;8.80;;;;;;;13.59;83.21;100156.78;95272;1180;88691;-80
2021/08/28 00:05:00;;;;;;;13.00;9.30;;;;;;;13.58;83.10;100151.98;95256;1180;94144;-66
2021/08/28 00:07:08;;;;;;;10.80;9.10;;;;;;;13.60;82.91;100155.77;95278;1180;80733;-65
2021/08/28 00:09:15;;;;;;;11.10;8.70;;;;;;;13.55;82.98;100155.13;95301;1180;82269;-76
2021/08/28 00:11:24;;;;;;;12.30;9.50;;;;;;;13.51;83.14;100152.09;95274;1180;96788;-76
2021/08/28 00:13:32;;;;;;;12.00;9.50;;;;;;;13.53;83.21;100152.95;95250;1180;88435;-65
2021/08/28 00:15:39;;;;;;;11.70;9.80;;;;;;;13.55;83.11;100153.88;95247;1180;93843;-65
2021/08/28 00:17:47;;;;;;;11.30;10.00;;;;;;;13.55;83.14;100153.80;95249;1180;81102;-67
2021/08/28 00:19:55;;;;;;;11.40;9.60;;;;;;;13.50;83.27;100155.31;95312;1180;81076;-67
2021/08/28 00:22:03;;;;;;;13.50;10.20;;;;;;;13.51;83.25;100152.46;95284;1180;98071;-66
2021/08/28 00:24:10;;;;;;;13.10;11.30;;;;;;;13.48;83.42;100150.05;95293;1180;87257;-77
2021/08/28 00:26:18;;;;;;;12.50;11.20;;;;;;;13.48;83.54;100146.93;95248;1180;94288;-78
2021/08/28 00:28:26;;;;;;;12.90;10.80;;;;;;;13.48;83.52;100144.70;95269;1180;79716;-78
2021/08/28 00:30:36;;;;;;;13.10;10.70;;;;;;;13.50;83.56;100143.90;95301;1180;81056;-65
2021/08/28 00:32:44;;;;;;;11.90;10.10;;;;;;;13.52;83.31;100144.94;95280;1180;96665;-65
2021/08/28 00:34:51;;;;;;;12.10;10.00;;;;;;;13.54;83.20;100145.36;95266;1180;87796;-65
2021/08/28 00:37:02;;;;;;;11.50;9.60;;;;;;;13.54;83.28;100144.30;95254;1180;92705;-66
2021/08/28 00:39:10;;;;;;;12.50;9.70;;;;;;;13.55;83.15;100144.55;95236;1180;80246;-76
2021/08/28 00:41:20;;;;;;;14.00;10.50;;;;;;;13.49;83.31;100139.40;95252;1180;81102;-77
2021/08/28 00:43:31;;;;;;;13.10;9.50;;;;;;;13.43;83.49;100142.02;95271;1180;96946;-78
2021/08/28 00:45:42;;;;;;;12.00;10.30;;;;;;;13.42;83.65;100142.52;95322;1180;86730;-66
2021/08/28 00:47:58;;;;;;;12.10;10.20;;;;;;;13.45;83.51;100142.10;95278;1180;94649;-66
2021/08/28 00:50:08;;;;;;;15.00;10.10;;;;;;;13.45;83.34;100143.71;95295;1180;79419;-66
2021/08/28 00:52:19;;;;;;;11.50;9.80;;;;;;;13.42;83.39;100140.77;95307;1180;80482;-67
2021/08/28 00:54:27;;;;;;;12.30;9.70;;;;;;;13.39;83.61;100135.96;95261;1180;97392;-65
2021/08/28 00:56:35;;;;;;;13.60;10.70;;;;;;;13.46;83.49;100137.33;95271;1180;88853;-66
2021/08/28 00:58:46;;;;;;;15.20;10.40;;;;;;;13.45;83.31;100137.80;95303;1180;94586;-67
2021/08/28 01:00:57;;;;;;;13.20;10.10;;;;;;;13.46;83.20;100141.83;95279;1180;79732;-66
2021/08/28 01:03:07;;;;;;;12.30;10.30;;;;;;;13.45;83.01;100141.16;95288;1180;82017;-65
2021/08/28 01:05:22;;;;;;;13.10;10.10;;;;;;;13.41;83.30;100140.15;95270;1180;97064;-64
2021/08/28 01:07:37;;;;;;;14.60;10.90;;;;;;;13.38;83.51;100144.28;95278;1180;87761;-65
2021/08/28 01:09:48;;;;;;;13.80;10.60;;;;;;;13.30;83.76;100143.95;95248;1180;94883;-65
2021/08/28 01:12:02;;;;;;;13.60;10.90;;;;;;;13.36;83.63;100146.64;95289;1180;81096;-67
2021/08/28 01:14:15;;;;;;;13.80;11.00;;;;;;;13.41;83.50;100152.34;95284;1180;80652;-77
2021/08/28 01:16:27;;;;;;;15.90;11.50;;;;;;;13.42;83.34;100151.53;95245;1180;98350;-78
2021/08/28 01:18:36;;;;;;;12.40;10.70;;;;;;;13.44;83.29;100154.78;95278;1180;88502;-79
2021/08/28 01:20:57;;;;;;;13.50;11.20;;;;;;;13.44;83.35;100160.71;95286;1180;93302;-78
2021/08/28 01:23:06;;;;;;;14.40;10.90;;;;;;;13.44;83.26;100163.10;95303;1180;80107;-78
2021/08/28 01:25:15;;;;;;;14.40;10.80;;;;;;;13.43;83.28;100168.86;95269;1180;81480;-66
2021/08/28 01:27:28;;;;;;;15.00;12.20;;;;;;;13.40;83.30;100165.83;95321;1180;96896;-67
2021/08/28 01:29:41;;;;;;;15.40;12.20;;;;;;;13.35;83.66;100167.25;95322;1180;86572;-66
2021/08/28 01:31:51;;;;;;;16.30;12.00;;;;;;;13.30;83.64;100166.59;95325;1180;94440;-67
2021/08/28 01:33:59;;;;;;;15.90;12.40;;;;;;;13.33;83.46;100168.06;95264;1180;81143;-65
2021/08/28 01:36:08;;;;;;;12.80;11.20;;;;;;;13.25;83.47;100174.08;95318;1180;82253;-65
2021/08/28 01:38:16;;;;;;;16.10;12.30;;;;;;;13.27;83.44;100177.41;95331;1180;97147;-65
2021/08/28 01:40:26;;;;;;;15.30;12.10;;;;;;;13.30;83.43;100173.61;95305;1180;88172;-78
2021/08/28 01:42:38;;;;;;;16.40;13.30;;;;;;;13.33;83.47;100174.73;95317;1180;93590;-79
2021/08/28 01:44:50;;;;;;;17.80;14.10;;;;;;;13.36;83.39;100172.22;95289;1180;81477;-66
2021/08/28 01:46:58;;;;;;;17.00;13.10;;;;;;;13.33;83.43;100168.42;95296;1180;82000;-66
2021/08/28 01:49:06;;;;;;;14.90;12.40;;;;;;;13.35;83.48;100174.73;95337;1180;97350;-76
2021/08/28 01:51:14;;;;;;;16.10;12.70;;;;;;;13.37;83.33;100167.21;95328;1180;88372;-79
2021/08/28 01:53:22;;;;;;;16.80;12.80;;;;;;;13.39;83.34;100163.40;95322;1180;94379;-79
2021/08/28 01:55:29;;;;;;;17.50;13.80;;;;;;;13.40;83.42;100166.66;95345;1180;80720;-69
2021/08/28 01:57:38;;;;;;;14.90;13.30;;;;;;;13.40;83.39;100166.91;95361;1180;82618;-66
2021/08/28 01:59:45;;;;;;;17.10;13.80;;;;;;;13.41;83.40;100163.90;95285;1180;96435;-67
2021/08/28 02:01:53;;;;;;;18.00;14.30;;;;;;;13.37;83.43;100164.58;95282;1180;88326;-67
2021/08/28 02:04:01;;;;;;;20.60;13.90;;;;;;;13.35;83.65;100167.59;95284;1180;95319;-66
2021/08/28 02:06:27;;;;;;;18.60;14.50;;;;;;;13.39;83.55;100163.95;95344;1180;81054;-66
2021/08/28 02:08:46;;;;;;;19.90;14.20;;;;;;;13.39;83.46;100162.02;95327;1180;82171;-67
2021/08/28 02:10:59;;;;;;;17.40;14.50;;;;;;;13.41;83.37;100163.77;95329;1180;97257;-78
2021/08/28 02:13:15;;;;;;;20.50;15.50;;;;;;;13.40;83.56;100160.23;95331;1180;87659;-78
2021/08/28 02:15:33;;;;;;;18.50;14.00;;;;;;;13.33;83.93;100163.29;95256;1180;94051;-67
2021/08/28 02:17:50;;;;;;;20.30;13.60;;;;;;;13.39;83.73;100166.50;95335;1180;81009;-66
2021/08/28 02:20:02;;;;;;;20.20;14.70;;;;;;;13.33;83.77;100166.29;95304;1180;81591;-79
2021/08/28 02:22:17;;;;;;;18.20;14.30;;;;;;;13.36;83.74;100168.88;95321;1180;97750;-80
2021/08/28 02:24:31;;;;;;;15.00;12.80;;;;;;;13.38;83.68;100163.53;95293;1180;87162;-67
2021/08/28 02:26:45;;;;;;;16.40;14.20;;;;;;;13.42;83.74;100164.02;95308;1180;92651;-66
2021/08/28 02:29:00;;;;;;;19.80;14.00;;;;;;;13.45;83.72;100161.52;95298;1180;81585;-66
2021/08/28 02:31:10;;;;;;;18.40;14.20;;;;;;;13.41;83.77;100160.39;95339;1181;81878;-66
2021/08/28 02:33:18;;;;;;;19.20;14.40;;;;;;;13.37;83.79;100158.98;95295;1179;97404;-66
2021/08/28 02:35:28;;;;;;;19.50;14.90;;;;;;;13.41;83.75;100157.02;95234;1180;87075;-65
2021/08/28 02:37:39;;;;;;;17.80;14.90;;;;;;;13.44;83.83;100151.66;95353;1180;93352;-66
2021/08/28 02:39:48;;;;;;;22.60;15.00;;;;;;;13.45;83.86;100150.94;95310;1180;80513;-66
2021/08/28 02:41:57;;;;;;;20.20;15.30;;;;;;;13.45;83.89;100153.48;95307;1180;82337;-67
2021/08/28 02:44:07;;;;;;;18.20;15.00;;;;;;;13.43;84.00;100151.45;95281;1180;97967;-80
2021/08/28 02:46:15;;;;;;;19.90;15.20;;;;;;;13.40;84.08;100151.16;95296;1180;85894;-80
2021/08/28 02:48:30;;;;;;;21.00;16.40;;;;;;;13.44;84.09;100153.53;95344;1180;92568;-80
2021/08/28 02:50:43;;;;;;;21.00;16.00;;;;;;;13.47;83.91;100154.98;95272;1180;81170;-67
2021/08/28 02:52:53;;;;;;;19.70;14.50;;;;;;;13.42;84.10;100151.58;95333;1180;79503;-67
2021/08/28 02:55:04;;;;;;;21.30;14.90;;;;;;;13.44;84.08;100150.90;95323;1180;97585;-66
2021/08/28 02:57:12;;;;;;;19.70;15.50;;;;;;;13.43;84.24;100148.48;95325;1180;87113;-67
2021/08/28 02:59:24;;;;;;;18.00;14.60;;;;;;;13.44;84.19;100148.73;95273;1180;94031;-67
2021/08/28 03:01:33;;;;;;;19.80;15.90;;;;;;;13.44;84.22;100146.60;95291;1180;81294;-67
2021/08/28 03:03:45;;;;;;;19.60;15.30;;;;;;;13.44;84.11;100143.23;95308;1180;81595;-74
2021/08/28 03:05:56;;;;;;;17.90;14.90;;;;;;;13.44;84.13;100146.10;95239;1180;98163;-79
2021/08/28 03:08:06;;;;;;;17.40;14.90;;;;;;;13.46;84.11;100148.52;95332;1180;87914;-79
2021/08/28 03:10:16;;;;;;;18.40;14.90;;;;;;;13.45;84.21;100150.06;95263;1180;92995;-66
2021/08/28 03:12:26;;;;;;;20.00;15.50;;;;;;;13.52;84.09;100146.79;95328;1180;80929;-67
2021/08/28 03:14:34;;;;;;;15.70;13.70;;;;;;;13.55;83.87;100145.82;95341;1180;81432;-65
2021/08/28 03:16:46;;;;;;;19.60;14.20;;;;;;;13.53;83.96;100146.15;95332;1180;98691;-66
2021/08/28 03:18:57;;;;;;;18.90;15.40;;;;;;;13.51;84.23;100149.13;95304;1180;88009;-79
2021/08/28 03:21:06;;;;;;;19.20;15.90;;;;;;;13.51;84.17;100151.41;95330;1180;94845;-78
2021/08/28 03:23:16;;;;;;;17.50;14.20;;;;;;;13.48;84.27;100152.30;95311;1180;82347;-78
2021/08/28 03:25:24;;;;;;;20.50;15.50;;;;;;;13.52;84.12;100152.12;95293;1180;80494;-79
2021/08/28 03:27:32;;;;;;;17.80;14.50;;;;;;;13.50;84.17;100148.04;95312;1180;97242;-79
2021/08/28 03:29:41;;;;;;;19.20;14.90;;;;;;;13.50;84.16;100147.70;95286;1180;87434;-79
2021/08/28 03:31:50;;;;;;;17.00;14.10;;;;;;;13.54;84.10;100143.91;95291;1180;93325;-79
2021/08/28 03:34:01;;;;;;;21.30;15.00;;;;;;;13.56;83.99;100146.48;95356;1180;80223;-66
2021/08/28 03:36:10;;;;;;;20.50;14.70;;;;;;;13.50;84.09;100150.13;95340;1180;81013;-66
2021/08/28 03:38:18;;;;;;;20.30;15.40;;;;;;;13.51;84.04;100148.87;95340;1180;97866;-66
2021/08/28 03:40:26;;;;;;;18.80;15.50;;;;;;;13.50;84.22;100147.91;95285;1180;88954;-66
2021/08/28 03:42:34;;;;;;;19.70;16.30;;;;;;;13.53;84.33;100149.33;95335;1180;93755;-68
2021/08/28 03:44:43;;;;;;;18.30;15.10;;;;;;;13.58;84.36;100147.02;95319;1180;80822;-78
2021/08/28 03:46:54;;;;;;;20.00;16.00;;;;;;;13.57;84.29;100148.34;95355;1180;81354;-79
2021/08/28 03:49:01;;;;;;;22.90;16.40;;;;;;;13.55;84.12;100147.40;95299;1180;98160;-80
2021/08/28 03:51:09;;;;;;;21.10;16.00;;;;;;;13.54;84.17;100146.60;95327;1180;86848;-79
2021/08/28 03:53:17;;;;;;;19.60;15.60;;;;;;;13.54;84.23;100144.98;95362;1180;93435;-79
2021/08/28 03:55:24;;;;;;;21.90;15.30;;;;;;;13.47;84.36;100146.71;95309;1180;80887;-68
2021/08/28 03:57:32;;;;;;;21.60;15.70;;;;;;;13.49;84.21;100143.83;95309;1180;82326;-66
2021/08/28 03:59:39;;;;;;;18.30;14.70;;;;;;;13.45;84.18;100142.84;95316;1180;96590;-79
2021/08/28 04:01:48;;;;;;;19.30;15.00;;;;;;;13.47;84.26;100140.91;95337;1180;86013;-79
2021/08/28 04:03:58;;;;;;;20.80;15.60;;;;;;;13.49;84.30;100140.70;95363;1180;93221;-77
2021/08/28 04:06:06;;;;;;;19.90;14.70;;;;;;;13.50;84.31;100142.27;95277;1180;81577;-80
2021/08/28 04:08:14;;;;;;;18.50;15.00;;;;;;;13.53;84.18;100141.90;95319;1180;80690;-79
2021/08/28 04:10:21;;;;;;;17.20;14.20;;;;;;;13.51;84.21;100143.81;95301;1180;97734;-79
2021/08/28 04:12:29;;;;;;;17.00;14.20;;;;;;;13.51;84.28;100146.75;95343;1180;86805;-79
2021/08/28 04:14:37;;;;;;;18.10;14.60;;;;;;;13.57;84.27;100142.89;95276;1180;94825;-66
2021/08/28 04:16:45;;;;;;;18.10;14.70;;;;;;;13.59;84.19;100147.67;95274;1180;81136;-66
2021/08/28 04:18:55;;;;;;;18.10;14.30;;;;;;;13.60;84.07;100149.77;95339;1180;80562;-66
2021/08/28 04:21:03;;;;;;;15.40;12.70;;;;;;;13.63;83.97;100150.70;95270;1180;97946;-66
2021/08/28 04:23:11;;;;;;;16.00;14.30;;;;;;;13.66;83.86;100151.74;95380;1180;87138;-67
2021/08/28 04:25:18;;;;;;;14.30;12.80;;;;;;;13.60;84.09;100154.11;95307;1180;92609;-68
2021/08/28 04:27:26;;;;;;;15.30;13.70;;;;;;;13.57;84.15;100153.83;95319;1180;80041;-67
2021/08/28 04:29:36;;;;;;;17.00;13.40;;;;;;;13.58;84.12;100158.41;95344;1180;80651;-79
2021/08/28 04:31:44;;;;;;;15.30;12.50;;;;;;;13.62;83.99;100162.73;95340;1180;98641;-80
2021/08/28 04:33:54;;;;;;;16.80;13.30;;;;;;;13.64;84.01;100161.23;95307;1180;88103;-67
2021/08/28 04:36:02;;;;;;;14.30;12.70;;;;;;;13.64;84.08;100162.57;95299;1180;93557;-67
2021/08/28 04:38:10;;;;;;;16.00;12.80;;;;;;;13.62;84.38;100167.20;95293;1180;79546;-67
2021/08/28 04:40:18;;;;;;;15.90;13.20;;;;;;;13.67;84.27;100170.19;95229;1180;81874;-79
2021/08/28 04:42:25;;;;;;;14.00;12.60;;;;;;;13.67;84.32;100171.88;95285;1180;97591;-80
2021/08/28 04:44:33;;;;;;;14.10;12.60;;;;;;;13.69;84.39;100172.98;95312;1180;87187;-80
2021/08/28 04:46:43;;;;;;;15.60;12.90;;;;;;;13.62;84.60;100173.59;95301;1180;94669;-80
2021/08/28 04:48:54;;;;;;;15.70;13.80;;;;;;;13.63;84.65;100176.38;95287;1180;81354;-68
2021/08/28 04:51:01;;;;;;;14.70;12.90;;;;;;;13.71;84.40;100178.16;95312;1180;80907;-66
2021/08/28 04:53:09;;;;;;;14.90;12.80;;;;;;;13.76;84.28;100181.17;95332;1180;97570;-67
2021/08/28 04:55:16;;;;;;;14.90;13.10;;;;;;;13.81;84.25;100182.45;95319;1180;87707;-68
2021/08/28 04:57:24;;;;;;;15.80;13.80;;;;;;;13.82;84.30;100179.79;95317;1180;94027;-66
2021/08/28 04:59:31;;;;;;;15.80;13.30;;;;;;;13.88;84.38;100180.17;95295;1180;79306;-79
2021/08/28 05:01:41;;;;;;;15.20;12.40;;;;;;;13.90;84.29;100182.30;95250;1180;80689;-79
2021/08/28 05:03:48;;;;;;;13.70;12.00;;;;;;;13.87;84.48;100179.13;95324;1180;97189;-67
2021/08/28 05:05:56;;;;;;;15.30;12.80;;;;;;;13.90;84.48;100181.97;95349;1180;87246;-67
2021/08/28 05:08:04;;;;;;;19.70;15.20;;;;;;;13.92;84.46;100183.70;95368;1180;93600;-67
2021/08/28 05:10:13;;;;;;;16.10;12.70;;;;;;;13.84;84.66;100188.38;95308;1180;80640;-66
2021/08/28 05:12:22;;;;;;;16.00;12.80;;;;;;;13.80;84.85;100187.86;95341;1180;80153;-67
2021/08/28 05:14:30;;;;;;;14.20;12.50;;;;;;;13.90;84.67;100186.17;95281;1180;98660;-67
2021/08/28 05:16:37;;;;;;;13.70;12.30;;;;;;;13.94;84.60;100184.62;95310;1180;87828;-67
2021/08/28 05:18:45;;;;;;;14.60;13.10;;;;;;;13.91;84.74;100185.20;95311;1180;94387;-66
2021/08/28 05:20:55;;;;;;;16.60;14.10;;;;;;;13.96;84.67;100182.52;95282;1180;79699;-66
2021/08/28 05:23:03;;;;;;;14.40;12.90;;;;;;;14.02;84.52;100180.77;95340;1180;80977;-66
2021/08/28 05:25:12;;;;;;;15.60;13.70;;;;;;;13.93;84.74;100181.86;95295;1180;97713;-66
2021/08/28 05:27:20;;;;;;;14.30;12.80;;;;;;;14.02;84.71;100180.52;95300;1180;86926;-66
2021/08/28 05:29:27;;;;;;;14.90;13.30;;;;;;;14.12;84.62;100181.80;95313;1180;94265;-79
2021/08/28 05:31:35;;;;;;;16.20;13.00;;;;;;;14.20;84.51;100188.94;95274;1180;79816;-78
2021/08/28 05:33:45;;;;;;;16.40;14.10;;;;;;;14.33;84.22;100183.96;95354;1180;80940;-70
2021/08/28 05:35:54;;;;;;;15.50;13.90;;;;;;;14.39;84.12;100183.84;95253;1180;97597;-66
2021/08/28 05:38:04;;;;;;;14.20;12.70;;;;;;;14.40;84.25;100187.02;95369;1180;88566;-65
2021/08/28 05:40:14;;;;;;;16.70;14.30;;;;;;;14.50;84.09;100189.40;95312;1180;94474;-66
2021/08/28 05:42:21;;;;;;;13.70;12.30;;;;;;;14.55;84.03;100187.42;95352;1180;80340;-66
2021/08/28 05:44:29;;;;;;;14.90;12.80;;;;;;;14.57;83.98;100187.23;95296;1180;80304;-79
2021/08/28 05:46:36;;;;;;;13.90;11.80;;;;;;;14.60;83.90;100184.91;95309;1180;98093;-78
2021/08/28 05:48:44;;;;;;;14.30;12.60;;;;;;;14.49;84.30;100188.34;95374;1180;87825;-78
2021/08/28 05:50:55;;;;;;;14.50;12.90;;;;;;;14.56;84.34;100186.81;95258;1180;94495;-79
2021/08/28 05:53:05;;;;;;;15.70;12.80;;;;;;;14.55;84.25;100184.70;95264;1179;79821;-79
2021/08/28 05:55:14;;;;;;;13.80;11.50;;;;;;;14.57;84.10;100187.77;95305;1180;80895;-79
2021/08/28 05:57:22;;;;;;;14.00;12.50;;;;;;;14.47;84.27;100188.43;95366;1180;97670;-79
2021/08/28 05:59:29;;;;;;;14.70;12.00;;;;;;;14.53;84.28;100189.35;95338;1179;86613;-67
2021/08/28 06:01:37;;;;;;;16.70;11.70;;;;;;;14.70;84.12;100188.30;95337;1180;91771;-67
2021/08/28 06:03:48;;;;;;;13.00;11.60;;;;;;;14.83;84.11;100189.61;95325;1180;78775;-67
2021/08/28 06:05:58;;;;;;;13.10;11.70;;;;;;;14.96;84.04;100187.29;95243;1180;82744;-68
2021/08/28 06:08:06;;;;;;;12.60;11.00;;;;;;;15.07;83.76;100184.13;95287;1180;97927;-66
2021/08/28 06:10:14;;;;;;;13.60;12.20;;;;;;;15.17;83.66;100185.38;95352;1180;87336;-77
2021/08/28 06:12:22;;;;;;;12.70;11.40;;;;;;;15.16;83.92;100187.73;95271;1180;93083;-78
2021/08/28 06:14:29;;;;;;;13.20;11.90;;;;;;;15.04;84.09;100191.61;95322;1180;78126;-66
2021/08/28 06:16:37;;;;;;;13.70;12.30;;;;;;;15.03;84.29;100189.02;95337;1180;80359;-67
2021/08/28 06:18:48;;;;;;;13.40;12.00;;;;;;;15.14;84.07;100194.58;95304;1180;97767;-78
2021/08/28 06:20:57;;;;;;;12.40;11.10;;;;;;;15.15;83.93;100194.95;95292;1180;87777;-79
2021/08/28 06:23:05;;;;;;;13.90;12.30;;;;;;;15.18;83.92;100197.50;95318;1180;93790;-78
2021/08/28 06:25:16;;;;;;;13.40;12.00;;;;;;;15.34;83.79;100196.92;95313;1180;79236;-66
2021/08/28 06:27:26;;;;;;;12.70;11.40;;;;;;;15.43;83.86;100201.98;95297;1179;82296;-66
2021/08/28 06:29:34;;;;;;;14.00;12.00;;;;;;;15.57;83.92;100206.02;95305;1180;97887;-78
2021/08/28 06:31:42;;;;;;;12.90;11.60;;;;;;;15.60;83.80;100203.17;95340;1180;87686;-78
2021/08/28 06:33:49;;;;;;;12.40;11.20;;;;;;;15.58;84.01;100205.30;95277;1180;93248;-78
2021/08/28 06:36:00;;;;;;;13.00;11.50;;;;;;;15.72;83.84;100204.36;95308;1180;77926;-78
2021/08/28 06:38:07;;;;;;;12.30;11.10;;;;;;;15.75;83.99;100205.39;95297;1180;81593;-79
2021/08/28 06:40:15;;;;;;;12.70;11.20;;;;;;;15.92;83.73;100205.26;95324;1180;98088;-78
2021/08/28 06:42:23;;;;;;;11.90;10.70;;;;;;;15.86;83.77;100203.07;95368;1180;87539;-77
2021/08/28 06:44:31;;;;;;;11.20;10.00;;;;;;;15.69;83.89;100202.48;95254;1180;93041;-78
2021/08/28 06:46:39;;;;;;;12.10;11.00;;;;;;;15.84;83.71;100202.77;95309;1180;80172;-79
2021/08/28 06:48:46;;;;;;;13.00;11.70;;;;;;;15.92;83.58;100200.23;95310;1180;81430;-78
2021/08/28 06:50:54;;;;;;;12.90;11.50;;;;;;;15.91;83.65;100203.17;95330;1180;95117;-78
2021/08/28 06:53:02;;;;;;;13.90;12.20;;;;;;;15.91;83.76;100202.42;95326;1180;87858;-79
2021/08/28 06:55:11;;;;;;;13.40;10.80;;;;;;;15.98;83.43;100205.11;95276;1180;93755;-67
2021/08/28 06:57:19;;;;;;;12.90;11.00;;;;;;;16.00;83.42;100202.30;95309;1180;81183;-65
2021/08/28 06:59:27;;;;;;;13.50;11.80;;;;;;;15.89;83.77;100204.75;95336;1180;80733;-77
2021/08/28 07:01:35;;;;;;;12.40;11.10;;;;;;;16.10;83.44;100200.27;95315;1180;98264;-78
2021/08/28 07:03:42;;;;;;;14.80;11.30;;;;;;;16.22;83.47;100202.98;95322;1180;88033;-70
2021/08/28 07:05:50;;;;;;;13.40;12.00;;;;;;;16.44;83.28;100201.10;95304;1180;94324;-79
2021/08/28 07:08:00;;;;;;;13.50;11.70;;;;;;;16.55;83.22;100193.10;95301;1180;80450;-78
2021/08/28 07:10:10;;;;;;;12.40;11.10;;;;;;;16.57;83.32;100193.84;95303;1180;80527;-66
2021/08/28 07:12:17;;;;;;;13.30;12.00;;;;;;;16.67;83.20;100191.70;95346;1180;97400;-67
2021/08/28 07:14:25;;;;;;;13.80;11.90;;;;;;;16.81;83.06;100196.41;95349;1180;87264;-78
2021/08/28 07:16:33;;;;;;;14.80;13.10;;;;;;;16.83;83.13;100198.72;95310;1180;94202;-78
2021/08/28 07:18:43;;;;;;;14.60;12.50;;;;;;;16.95;83.06;100196.13;95322;1180;80373;-74
2021/08/28 07:20:51;;;;;;;13.80;12.40;;;;;;;17.16;82.81;100192.92;95286;1180;80568;-81
2021/08/28 07:22:58;;;;;;;14.20;12.70;;;;;;;17.28;82.54;100193.92;95314;1180;96822;-78
2021/08/28 07:25:08;;;;;;;15.00;13.40;;;;;;;17.18;82.67;100193.17;95244;1180;88422;-68
2021/08/28 07:27:17;;;;;;;15.60;13.40;;;;;;;17.07;82.90;100194.50;95358;1180;93647;-66
2021/08/28 07:29:24;;;;;;;15.40;13.80;;;;;;;17.14;82.74;100195.44;95339;1180;78019;-78
2021/08/28 07:31:35;;;;;;;15.00;13.40;;;;;;;17.09;82.82;100197.56;95290;1180;81079;-79
2021/08/28 07:33:43;;;;;;;14.70;12.50;;;;;;;17.09;82.83;100196.52;95376;1180;96431;-72
2021/08/28 07:35:55;;;;;;;14.80;13.10;;;;;;;17.11;82.61;100196.61;95240;1180;87941;-65
2021/08/28 07:38:03;;;;;;;15.30;13.50;;;;;;;17.27;82.39;100194.48;95360;1180;93331;-65
2021/08/28 07:40:15;;;;;;;15.20;13.50;;;;;;;17.19;82.61;100190.19;95231;1180;79508;-65
2021/08/28 07:42:23;;;;;;;16.50;14.70;;;;;;;17.27;82.37;100192.42;95348;1180;80324;-65
2021/08/28 07:44:31;;;;;;;15.90;13.40;;;;;;;17.43;81.85;100190.81;95306;1180;97481;-70
2021/08/28 07:46:38;;;;;;;15.00;13.00;;;;;;;17.35;82.09;100188.23;95307;1180;87339;-69
2021/08/28 07:48:47;;;;;;;15.30;13.70;;;;;;;17.32;82.20;100188.92;95346;1180;92831;-68
2021/08/28 07:50:54;;;;;;;14.90;13.30;;;;;;;17.42;82.19;100189.42;95360;1180;78448;-69
2021/08/28 07:53:02;;;;;;;16.30;13.90;;;;;;;17.58;81.78;100189.98;95327;1180;80322;-68
2021/08/28 07:55:12;;;;;;;13.90;12.40;;;;;;;17.55;81.88;100191.86;95299;1179;97333;-73
2021/08/28 07:57:20;;;;;;;11.90;10.60;;;;;;;17.61;81.62;100191.97;95340;1180;87252;-74
2021/08/28 07:59:28;;;;;;;14.40;12.50;;;;;;;17.69;81.33;100189.67;95276;1180;93563;-74
2021/08/28 08:01:35;;;;;;;13.80;11.20;;;;;;;17.70;81.52;100189.83;95289;1180;78594;-72
2021/08/28 08:03:43;;;;;;;14.80;11.70;;;;;;;17.68;81.54;100195.66;95316;1180;81491;-68
2021/08/28 08:05:50;;;;;;;10.80;9.70;;;;;;;17.75;81.56;100191.77;95336;1180;97676;-67
2021/08/28 08:07:58;;;;;;;10.70;9.50;;;;;;;17.79;81.42;100196.39;95312;1180;88194;-66
2021/08/28 08:10:08;;;;;;;11.30;10.10;;;;;;;17.88;80.78;100194.70;95298;1180;93873;-66
2021/08/28 08:12:19;;;;;;;10.40;9.10;;;;;;;17.88;80.95;100193.23;95359;1180;78805;-65
2021/08/28 08:14:26;;;;;;;8.30;7.40;;;;;;;18.05;80.37;100193.27;95296;1180;82104;-73
2021/08/28 08:16:34;;;;;;;10.30;8.50;;;;;;;18.19;80.15;100193.65;95309;1180;97745;-72
2021/08/28 08:18:42;;;;;;;10.60;8.20;;;;;;;18.21;80.32;100194.91;95335;1180;87718;-67
2021/08/28 08:20:50;;;;;;;8.80;7.90;;;;;;;18.21;80.19;100195.62;95213;1180;94089;-72
2021/08/28 08:22:58;;;;;;;9.80;8.80;;;;;;;18.08;80.36;100191.84;95325;1180;77968;-75
2021/08/28 08:25:07;;;;;;;9.60;8.70;;;;;;;18.11;80.34;100191.91;95330;1180;82000;-75
2021/08/28 08:27:15;;;;;;;9.70;8.70;;;;;;;18.29;80.02;100191.55;95340;1180;97373;-78
2021/08/28 08:29:22;;;;;;;9.70;7.70;;;;;;;18.40;79.63;100192.69;95310;1180;87223;-73
2021/08/28 08:31:35;;;;;;;8.50;7.70;;;;;;;18.41;79.74;100191.05;95241;1180;94546;-74
2021/08/28 08:33:45;;;;;;;7.30;6.60;;;;;;;18.66;79.19;100189.69;95360;1180;80109;-73
2021/08/28 08:35:53;;;;;;;7.70;6.10;;;;;;;18.80;78.93;100187.14;95280;1180;81633;-65
2021/08/28 08:38:02;;;;;;;7.70;6.00;;;;;;;18.82;78.30;100186.95;95263;1180;97895;-65
2021/08/28 08:40:13;;;;;;;7.40;6.10;;;;;;;18.77;77.91;100187.70;95287;1180;86908;-77
2021/08/28 08:42:28;;;;;;;6.60;5.90;;;;;;;18.87;77.66;100187.15;95237;1180;92710;-74
2021/08/28 08:44:37;;;;;;;6.60;5.60;;;;;;;18.65;78.22;100186.49;95309;1180;79199;-67
2021/08/28 08:46:47;;;;;;;6.50;5.90;;;;;;;18.67;77.94;100188.66;95337;1180;80639;-68
2021/08/28 08:48:55;;;;;;;6.00;5.40;;;;;;;18.71;77.83;100186.98;95256;1180;98648;-67
2021/08/28 08:51:26;;;;;;;6.50;5.60;;;;;;;18.66;77.72;100187.18;95305;1179;86917;-72
2021/08/28 08:54:11;;;;;;;7.00;6.30;;;;;;;18.68;77.78;100190.16;95323;1180;94361;-69
2021/08/28 08:56:35;;;;;;;13.20;6.30;;;;;;;18.49;78.14;100194.68;95379;1180;78138;-68
2021/08/28 08:58:52;;;;;;;20.70;7.90;;;;;;;18.55;77.73;100194.27;95318;1180;79606;-68
2021/08/28 09:01:07;;;;;;;29.70;8.90;;;;;;;18.56;77.77;100197.90;95277;1180;97702;-69
2021/08/28 09:03:24;;;;;;;20.40;7.60;;;;;;;18.64;77.22;100198.68;95347;1180;87688;-69
2021/08/28 09:05:34;;;;;;;10.30;5.90;;;;;;;18.66;77.28;100198.19;95288;1180;93581;-70
2021/08/28 09:07:43;;;;;;;9.90;6.70;;;;;;;18.61;77.23;100198.30;95296;1180;80288;-69
2021/08/28 09:09:50;;;;;;;22.70;8.40;;;;;;;18.51;77.32;100203.85;95336;1180;80325;-74
2021/08/28 09:12:05;;;;;;;44.90;10.90;;;;;;;18.48;77.59;100204.00;95291;1180;98523;-73
2021/08/28 09:14:23;;;;;;;53.00;13.20;;;;;;;18.66;77.34;100208.41;95383;1180;87849;-76
2021/08/28 09:16:34;;;;;;;16.40;7.70;;;;;;;18.73;77.11;100203.81;95276;1180;93715;-75
2021/08/28 09:18:54;;;;;;;9.50;6.60;;;;;;;18.70;77.21;100203.25;95298;1180;77861;-70
2021/08/28 09:21:13;;;;;;;7.40;6.50;;;;;;;18.75;76.93;100204.73;95311;1180;80226;-75
2021/08/28 09:23:23;;;;;;;7.30;5.90;;;;;;;18.72;77.08;100206.05;95296;1180;96862;-74
2021/08/28 09:25:32;;;;;;;6.70;5.70;;;;;;;18.76;76.92;100211.27;95290;1179;87791;-71
2021/08/28 09:27:43;;;;;;;12.50;6.20;;;;;;;18.72;76.68;100212.17;95294;1180;94718;-79
2021/08/28 09:29:50;;;;;;;9.60;6.50;;;;;;;18.65;76.87;100215.71;95236;1180;79543;-69
2021/08/28 09:31:58;;;;;;;8.20;5.80;;;;;;;18.73;76.48;100214.33;95311;1180;80700;-69
2021/08/28 09:34:23;;;;;;;15.10;6.90;;;;;;;18.78;76.27;100212.40;95264;1180;97929;-67
2021/08/28 09:36:31;;;;;;;9.10;6.80;;;;;;;18.81;76.16;100215.31;95293;1180;88178;-67
2021/08/28 09:38:49;;;;;;;7.70;5.70;;;;;;;18.83;75.83;100214.77;95342;1180;94615;-71
2021/08/28 09:41:00;;;;;;;6.20;5.60;;;;;;;18.87;75.87;100220.16;95291;1180;81704;-68
2021/08/28 09:43:12;;;;;;;8.60;6.00;;;;;;;18.96;75.79;100219.49;95312;1180;80234;-69
2021/08/28 09:45:22;;;;;;;10.40;6.10;;;;;;;18.90;75.98;100221.20;95243;1180;98382;-68
2021/08/28 09:47:30;;;;;;;14.30;7.00;;;;;;;18.97;75.99;100221.91;95319;1180;87380;-70
2021/08/28 09:49:39;;;;;;;16.00;7.30;;;;;;;19.06;75.98;100220.81;95330;1180;94660;-66
2021/08/28 09:51:49;;;;;;;8.70;7.10;;;;;;;19.08;76.03;100221.23;95326;1180;78973;-69